Terminal Aerodrome Forecast
Issued by NWS Grand Forks, ND

Home | Current Version | Previous Version | Text Only | Print | Product List | Glossary Off
Versions: 1 2 3 4 5 6 7 8 9 10 11 12 13 14 15

000
FTUS43 KFGF 141100
TAFFAR
TAF
KFAR 141120Z 1412/1512 36013KT P6SM FEW080
     FM141500 35016G22KT P6SM BKN050
     FM142300 34011KT P6SM SCT050
     FM150500 VRB05KT P6SM SCT250=

USA.gov is the U.S. government's official web portal to all federal, state and local government web resources and services.